createdAt,value
2019-01-21T00:00:33.242Z,-4.20
2019-01-21T00:03:01.824Z,-4.30
2019-01-21T00:05:30.135Z,-4.30
2019-01-21T00:07:58.583Z,-4.30
2019-01-21T00:10:27.307Z,-4.30
2019-01-21T00:12:55.812Z,-4.30
2019-01-21T00:15:24.231Z,-4.30
2019-01-21T00:17:52.817Z,-4.40
2019-01-21T00:20:21.118Z,-4.40
2019-01-21T00:22:49.550Z,-4.40
2019-01-21T00:25:17.964Z,-4.40
2019-01-21T00:27:46.385Z,-4.40
2019-01-21T00:30:14.952Z,-4.50
2019-01-21T00:32:43.417Z,-4.50
2019-01-21T00:35:12.129Z,-4.50
2019-01-21T00:37:40.522Z,-4.50
2019-01-21T00:40:09.752Z,-4.50
2019-01-21T00:42:38.153Z,-4.60
2019-01-21T00:45:06.958Z,-4.60
2019-01-21T00:47:35.499Z,-4.60
2019-01-21T00:50:04.460Z,-4.60
2019-01-21T00:52:33.100Z,-4.60
2019-01-21T00:55:01.653Z,-4.70
2019-01-21T00:57:30.080Z,-4.60
2019-01-21T00:59:58.509Z,-4.70
2019-01-21T01:02:26.837Z,-4.70
2019-01-21T01:04:55.704Z,-4.70
2019-01-21T01:07:24.171Z,-4.70
2019-01-21T01:09:52.704Z,-4.80
2019-01-21T01:12:21.102Z,-4.80
2019-01-21T01:14:49.400Z,-4.80
2019-01-21T01:17:17.825Z,-4.80
2019-01-21T01:19:46.218Z,-4.80
2019-01-21T01:22:14.774Z,-4.80
2019-01-21T01:24:43.214Z,-4.80
2019-01-21T01:27:11.617Z,-4.90
2019-01-21T01:29:40.016Z,-4.90
2019-01-21T01:32:08.367Z,-4.90
2019-01-21T01:34:42.788Z,-4.90
2019-01-21T01:37:11.144Z,-4.90
2019-01-21T01:39:39.543Z,-4.90
2019-01-21T01:42:07.979Z,-4.90
2019-01-21T01:44:36.305Z,-4.90
2019-01-21T01:47:04.699Z,-5.00
2019-01-21T01:49:33.074Z,-5.00
2019-01-21T01:52:01.538Z,-5.00
2019-01-21T01:54:29.992Z,-5.00
2019-01-21T01:56:58.420Z,-5.00
2019-01-21T01:59:26.795Z,-5.00
2019-01-21T02:01:55.249Z,-5.00
2019-01-21T02:04:23.739Z,-5.00
2019-01-21T02:06:52.217Z,-5.10
2019-01-21T02:09:21.081Z,-5.10
2019-01-21T02:11:49.531Z,-5.10
2019-01-21T02:14:18.888Z,-5.10
2019-01-21T02:16:47.427Z,-5.10
2019-01-21T02:19:15.904Z,-5.10
2019-01-21T02:21:44.697Z,-5.10
2019-01-21T02:24:13.949Z,-5.10
2019-01-21T02:26:50.766Z,-5.20
2019-01-21T02:29:44.578Z,-5.20
2019-01-21T02:32:30.851Z,-5.20
2019-01-21T02:35:09.252Z,-5.20
2019-01-21T02:38:06.280Z,-5.20
2019-01-21T02:40:38.880Z,-5.20
2019-01-21T02:43:32.762Z,-5.20
2019-01-21T02:46:19.093Z,-5.20
2019-01-21T02:48:52.277Z,-5.20
2019-01-21T02:51:32.395Z,-5.30
2019-01-21T02:54:18.857Z,-5.30
2019-01-21T02:57:05.249Z,-5.30
2019-01-21T02:59:37.036Z,-5.30
2019-01-21T03:02:10.341Z,-5.30
2019-01-21T03:05:09.972Z,-5.30
2019-01-21T03:07:45.241Z,-5.40
2019-01-21T03:10:36.037Z,-5.40
2019-01-21T03:13:14.889Z,-5.40
2019-01-21T03:16:08.855Z,-5.40
2019-01-21T03:18:53.865Z,-5.40
2019-01-21T03:21:27.997Z,-5.40
2019-01-21T03:24:24.558Z,-5.50
2019-01-21T03:27:12.029Z,-5.50
2019-01-21T03:30:14.968Z,-5.40
2019-01-21T03:33:05.167Z,-5.50
2019-01-21T03:35:47.809Z,-5.50
2019-01-21T03:38:33.935Z,-5.50
2019-01-21T03:41:27.319Z,-5.50
2019-01-21T03:44:23.929Z,-5.60
2019-01-21T03:47:08.789Z,-5.60
2019-01-21T03:49:54.979Z,-5.60
2019-01-21T03:52:42.435Z,-5.60
2019-01-21T03:55:12.532Z,-5.60
2019-01-21T03:57:59.970Z,-5.60
2019-01-21T04:00:50.140Z,-5.60
2019-01-21T04:03:40.397Z,-5.60
2019-01-21T04:06:21.122Z,-5.60
2019-01-21T04:09:17.729Z,-5.60
2019-01-21T04:11:53.457Z,-5.60
2019-01-21T04:14:39.773Z,-5.70
2019-01-21T04:17:20.173Z,-5.70
2019-01-21T04:20:03.322Z,-5.60
2019-01-21T04:22:53.637Z,-5.60
2019-01-21T04:25:50.252Z,-5.70
2019-01-21T04:28:37.968Z,-5.70
2019-01-21T04:31:28.498Z,-5.70
2019-01-21T04:34:15.549Z,-5.70
2019-01-21T04:37:12.350Z,-5.70
2019-01-21T04:39:46.867Z,-5.70
2019-01-21T04:42:37.377Z,-5.70
2019-01-21T04:45:12.791Z,-5.70
2019-01-21T04:47:45.990Z,-5.70
2019-01-21T04:50:29.253Z,-5.80
2019-01-21T04:53:15.239Z,-5.70
2019-01-21T04:55:58.204Z,-5.70
2019-01-21T04:58:47.180Z,-5.70
2019-01-21T05:01:30.342Z,-5.70
2019-01-21T05:04:04.114Z,-5.70
2019-01-21T05:06:54.689Z,-5.80
2019-01-21T05:09:42.586Z,-5.80
2019-01-21T05:12:36.030Z,-5.80
2019-01-21T05:15:22.495Z,-5.80
2019-01-21T05:18:28.272Z,-5.90
2019-01-21T05:21:25.706Z,-5.90
2019-01-21T05:24:19.204Z,-6.00
2019-01-21T05:27:07.068Z,-6.00
2019-01-21T05:29:52.302Z,-5.90
2019-01-21T05:32:40.112Z,-5.90
2019-01-21T05:35:30.611Z,-5.90
2019-01-21T05:38:11.776Z,-5.90
2019-01-21T05:40:57.912Z,-5.90
2019-01-21T05:43:46.461Z,-5.90
2019-01-21T05:46:40.026Z,-5.90
2019-01-21T05:49:28.339Z,-6.00
2019-01-21T05:52:03.768Z,-6.00
2019-01-21T05:54:43.186Z,-6.00
2019-01-21T05:57:27.614Z,-6.00
2019-01-21T06:00:06.331Z,-6.00
2019-01-21T06:02:51.581Z,-6.00
2019-01-21T06:05:34.658Z,-6.00
2019-01-21T06:08:21.168Z,-6.00
2019-01-21T06:10:56.066Z,-6.00
2019-01-21T06:13:42.803Z,-6.00
2019-01-21T06:16:16.075Z,-6.00
2019-01-21T06:19:02.238Z,-6.10
2019-01-21T06:21:52.921Z,-6.00
2019-01-21T06:24:43.263Z,-6.00
2019-01-21T06:27:28.689Z,-6.10
2019-01-21T06:30:25.413Z,-6.10
2019-01-21T06:33:07.592Z,-6.10
2019-01-21T06:35:53.999Z,-6.10
2019-01-21T06:38:59.912Z,-6.10
2019-01-21T06:41:53.072Z,-6.10
2019-01-21T06:44:44.002Z,-6.10
2019-01-21T06:47:37.375Z,-6.10
2019-01-21T06:50:11.810Z,-6.10
2019-01-21T06:52:56.425Z,-6.10
2019-01-21T06:55:35.588Z,-6.20
2019-01-21T06:58:26.627Z,-6.20
2019-01-21T07:01:29.699Z,-6.20
2019-01-21T07:04:05.002Z,-6.20
2019-01-21T07:06:55.333Z,-6.20
2019-01-21T07:09:54.835Z,-6.20
2019-01-21T07:12:28.295Z,-6.20
2019-01-21T07:15:34.092Z,-6.20
2019-01-21T07:18:26.064Z,-6.20
2019-01-21T07:21:22.542Z,-6.20
2019-01-21T07:24:10.116Z,-6.20
2019-01-21T07:27:00.445Z,-6.30
2019-01-21T07:29:36.062Z,-6.20
2019-01-21T07:32:07.850Z,-6.20
2019-01-21T07:34:53.888Z,-6.20
2019-01-21T07:37:41.382Z,-6.20
2019-01-21T07:40:27.741Z,-6.20
2019-01-21T07:43:27.142Z,-6.20
2019-01-21T07:46:18.115Z,-6.20
2019-01-21T07:49:17.768Z,-6.20
2019-01-21T07:51:56.191Z,-6.20
2019-01-21T07:54:59.072Z,-6.20
2019-01-21T07:57:47.414Z,-6.20
2019-01-21T08:00:39.723Z,-6.20
2019-01-21T08:03:36.597Z,-6.20
2019-01-21T08:06:15.023Z,-6.20
2019-01-21T08:09:14.322Z,-6.20
2019-01-21T08:12:01.696Z,-6.20
2019-01-21T08:14:39.772Z,-6.20
2019-01-21T08:17:23.823Z,-6.20
2019-01-21T08:19:56.240Z,-6.20
2019-01-21T08:22:47.405Z,-6.20
2019-01-21T08:25:24.866Z,-6.20
2019-01-21T08:28:12.293Z,-6.20
2019-01-21T08:31:02.533Z,-6.20
2019-01-21T08:33:34.274Z,-6.10
2019-01-21T08:36:10.864Z,-6.10
2019-01-21T08:38:58.313Z,-6.00
2019-01-21T08:41:55.179Z,-6.00
2019-01-21T08:44:45.615Z,-6.00
2019-01-21T08:47:33.041Z,-5.90
2019-01-21T08:50:10.977Z,-5.90
2019-01-21T08:52:58.398Z,-5.80
2019-01-21T08:55:45.871Z,-5.70
2019-01-21T08:58:48.661Z,-5.70
2019-01-21T09:01:30.486Z,-5.60
2019-01-21T09:04:26.730Z,-5.50
2019-01-21T09:07:04.972Z,-5.50
2019-01-21T09:09:39.692Z,-5.40
2019-01-21T09:12:25.734Z,-5.40
2019-01-21T09:15:31.257Z,-5.30
2019-01-21T09:18:12.684Z,-5.20
2019-01-21T09:20:46.048Z,-5.10
2019-01-21T09:23:19.715Z,-5.10
2019-01-21T09:25:57.992Z,-5.00
2019-01-21T09:28:33.650Z,-4.90
2019-01-21T09:31:29.964Z,-4.90
2019-01-21T09:34:16.330Z,-4.80
2019-01-21T09:37:09.575Z,-4.70
2019-01-21T09:39:49.008Z,-4.60
2019-01-21T09:42:35.402Z,-4.60
2019-01-21T09:45:24.752Z,-4.50
2019-01-21T09:47:52.208Z,-4.40
2019-01-21T09:50:20.801Z,-4.30
2019-01-21T09:52:49.522Z,-4.30
2019-01-21T09:55:17.959Z,-4.20
2019-01-21T09:57:47.293Z,-4.10
2019-01-21T10:00:17.261Z,-4.10
2019-01-21T10:02:49.049Z,-4.00
2019-01-21T10:05:18.081Z,-3.90
2019-01-21T10:08:17.592Z,-3.80
2019-01-21T10:11:14.305Z,-3.80
2019-01-21T10:14:17.239Z,-3.70
2019-01-21T10:16:55.474Z,-3.60
2019-01-21T10:19:34.574Z,-3.50
2019-01-21T10:22:20.773Z,-3.40
2019-01-21T10:25:14.428Z,-3.30
2019-01-21T10:28:04.842Z,-3.20
2019-01-21T10:30:39.340Z,-3.20
2019-01-21T10:33:20.896Z,-3.10
2019-01-21T10:35:59.264Z,-3.00
2019-01-21T10:38:41.255Z,-2.90
2019-01-21T10:41:22.696Z,-2.80
2019-01-21T10:44:03.895Z,-2.70
2019-01-21T10:46:50.060Z,-2.60
2019-01-21T10:49:36.479Z,-2.50
2019-01-21T10:52:16.165Z,-2.40
2019-01-21T10:55:12.769Z,-2.30
2019-01-21T10:57:46.786Z,-2.20
2019-01-21T11:00:30.380Z,-2.10
2019-01-21T11:03:02.689Z,-2.00
2019-01-21T11:05:39.027Z,-1.90
2019-01-21T11:08:32.313Z,-1.90
2019-01-21T11:11:18.639Z,-1.80
2019-01-21T11:13:56.269Z,-1.70
2019-01-21T11:16:38.802Z,-1.60
2019-01-21T11:19:14.468Z,-1.50
2019-01-21T11:21:48.435Z,-1.40
2019-01-21T11:24:29.224Z,-1.30
2019-01-21T11:27:19.125Z,-1.20
2019-01-21T11:30:05.565Z,-1.10
2019-01-21T11:32:52.968Z,-1.10
2019-01-21T11:35:28.701Z,-1.00
2019-01-21T11:38:03.124Z,-0.90
2019-01-21T11:40:54.505Z,-0.80
2019-01-21T11:43:57.206Z,-0.70
2019-01-21T11:46:53.614Z,-0.60
2019-01-21T11:49:53.200Z,-0.50
2019-01-21T11:52:40.613Z,-0.40
2019-01-21T11:55:23.966Z,-0.30
2019-01-21T11:58:07.009Z,-0.20
2019-01-21T12:00:40.609Z,-0.10
2019-01-21T12:03:27.010Z,0.00
2019-01-21T12:06:23.461Z,0.00
2019-01-21T12:09:13.131Z,0.10
2019-01-21T12:12:00.532Z,0.20
2019-01-21T12:14:48.031Z,0.30
2019-01-21T12:17:23.722Z,0.30
2019-01-21T12:20:04.793Z,0.40
2019-01-21T12:22:58.391Z,0.40
2019-01-21T12:25:39.392Z,0.50
2019-01-21T12:28:20.812Z,0.50
2019-01-21T12:30:52.385Z,0.60
2019-01-21T12:33:39.912Z,0.60
2019-01-21T12:36:13.924Z,0.60
2019-01-21T12:38:47.951Z,0.70
2019-01-21T12:41:21.732Z,0.70
2019-01-21T12:44:06.914Z,0.80
2019-01-21T12:46:43.606Z,0.90
2019-01-21T12:49:20.698Z,0.90
2019-01-21T12:52:01.226Z,0.90
2019-01-21T12:54:47.264Z,0.90
2019-01-21T12:57:24.971Z,0.90
2019-01-21T12:59:57.588Z,1.00
2019-01-21T13:02:33.662Z,1.00
2019-01-21T13:05:20.959Z,1.00
2019-01-21T13:08:04.394Z,1.00
2019-01-21T13:10:56.999Z,1.10
2019-01-21T13:13:35.024Z,1.10
2019-01-21T13:16:28.558Z,1.10
2019-01-21T13:19:21.987Z,1.10
2019-01-21T13:21:59.052Z,1.10
2019-01-21T13:24:42.338Z,1.10
2019-01-21T13:27:14.941Z,1.10
2019-01-21T13:29:52.878Z,1.20
2019-01-21T13:32:39.157Z,1.20
2019-01-21T13:35:32.591Z,1.20
2019-01-21T13:38:08.009Z,1.30
2019-01-21T13:40:51.652Z,1.30
2019-01-21T13:43:26.950Z,1.30
2019-01-21T13:46:05.917Z,1.30
2019-01-21T13:48:38.753Z,1.30
2019-01-21T13:51:14.590Z,1.30
2019-01-21T13:54:02.802Z,1.30
2019-01-21T13:56:34.813Z,1.30
2019-01-21T13:59:25.030Z,1.40
2019-01-21T14:02:12.610Z,1.40
2019-01-21T14:05:02.837Z,1.40
2019-01-21T14:07:56.499Z,1.40
2019-01-21T14:10:49.896Z,1.40
2019-01-21T14:13:39.884Z,1.40
2019-01-21T14:16:26.273Z,1.40
2019-01-21T14:18:57.973Z,1.50
2019-01-21T14:21:45.387Z,1.50
2019-01-21T14:24:41.909Z,1.60
2019-01-21T14:27:38.620Z,1.60
2019-01-21T14:30:29.328Z,1.60
2019-01-21T14:33:19.683Z,1.70
2019-01-21T14:36:10.321Z,1.80
2019-01-21T14:38:45.073Z,1.80
2019-01-21T14:41:32.506Z,1.80
2019-01-21T14:44:15.847Z,1.80
2019-01-21T14:46:49.043Z,1.90
2019-01-21T14:49:23.439Z,1.90
2019-01-21T14:52:26.130Z,1.80
2019-01-21T14:55:12.651Z,1.80
2019-01-21T14:57:52.322Z,1.80
2019-01-21T15:00:43.182Z,1.70
2019-01-21T15:03:27.067Z,1.70
2019-01-21T15:06:14.598Z,1.70
2019-01-21T15:08:51.351Z,1.60
2019-01-21T15:11:44.869Z,1.50
2019-01-21T15:14:35.442Z,1.50
2019-01-21T15:17:31.835Z,1.50
2019-01-21T15:20:37.437Z,1.40
2019-01-21T15:23:27.518Z,1.30
2019-01-21T15:26:15.050Z,1.20
2019-01-21T15:29:11.915Z,1.20
2019-01-21T15:31:52.127Z,1.10
2019-01-21T15:34:39.601Z,1.00
2019-01-21T15:37:11.179Z,1.00
2019-01-21T15:40:00.303Z,0.90
2019-01-21T15:42:35.217Z,0.90
2019-01-21T15:45:08.181Z,0.80
2019-01-21T15:47:50.221Z,0.80
2019-01-21T15:50:31.330Z,0.80
2019-01-21T15:53:21.889Z,0.70
2019-01-21T15:55:52.798Z,0.70
2019-01-21T15:58:28.228Z,0.60
2019-01-21T16:01:10.257Z,0.60
2019-01-21T16:03:40.945Z,0.50
2019-01-21T16:06:28.400Z,0.50
2019-01-21T16:09:02.211Z,0.40
2019-01-21T16:11:49.327Z,0.40
2019-01-21T16:14:42.800Z,0.40
2019-01-21T16:17:36.462Z,0.30
2019-01-21T16:20:30.114Z,0.30
2019-01-21T16:23:35.768Z,0.20
2019-01-21T16:26:09.300Z,0.20
2019-01-21T16:28:59.975Z,0.10
2019-01-21T16:31:47.407Z,0.10
2019-01-21T16:34:30.009Z,0.00
2019-01-21T16:37:01.792Z,0.00
2019-01-21T16:39:44.260Z,-0.10
2019-01-21T16:42:15.238Z,-0.10
2019-01-21T16:44:44.967Z,-0.10
2019-01-21T16:47:13.690Z,-0.20
2019-01-21T16:49:42.269Z,-0.20
2019-01-21T16:52:10.781Z,-0.20
2019-01-21T16:54:39.161Z,-0.30
2019-01-21T16:57:07.666Z,-0.30
2019-01-21T16:59:36.221Z,-0.30
2019-01-21T17:02:04.700Z,-0.40
2019-01-21T17:04:33.223Z,-0.40
2019-01-21T17:07:01.796Z,-0.40
2019-01-21T17:09:32.969Z,-0.50
2019-01-21T17:12:01.514Z,-0.50
2019-01-21T17:14:30.427Z,-0.50
2019-01-21T17:16:58.792Z,-0.60
2019-01-21T17:19:27.552Z,-0.60
2019-01-21T17:21:55.894Z,-0.60
2019-01-21T17:24:24.453Z,-0.70
2019-01-21T17:26:52.973Z,-0.70
2019-01-21T17:29:21.506Z,-0.70
2019-01-21T17:31:49.897Z,-0.70
2019-01-21T17:34:18.383Z,-0.80
2019-01-21T17:36:46.764Z,-0.80
2019-01-21T17:39:15.194Z,-0.80
2019-01-21T17:41:43.624Z,-0.80
2019-01-21T17:44:12.751Z,-0.80
2019-01-21T17:46:41.491Z,-0.80
2019-01-21T17:49:09.871Z,-0.80
2019-01-21T17:51:38.682Z,-0.90
2019-01-21T17:54:07.341Z,-0.80
2019-01-21T17:56:36.009Z,-0.90
2019-01-21T17:59:04.837Z,-0.90
2019-01-21T18:01:39.099Z,-0.90
2019-01-21T18:04:04.035Z,-1.00
2019-01-21T18:06:32.672Z,-1.00
2019-01-21T18:09:02.214Z,-1.00
2019-01-21T18:11:30.701Z,-1.00
2019-01-21T18:13:59.245Z,-1.00
2019-01-21T18:16:27.761Z,-1.10
2019-01-21T18:18:56.234Z,-1.10
2019-01-21T18:21:24.646Z,-1.10
2019-01-21T18:23:53.317Z,-1.10
2019-01-21T18:26:21.785Z,-1.10
2019-01-21T18:28:50.301Z,-1.20
2019-01-21T18:31:18.672Z,-1.20
2019-01-21T18:33:47.297Z,-1.20
2019-01-21T18:36:15.776Z,-1.20
2019-01-21T18:38:44.278Z,-1.30
2019-01-21T18:41:12.880Z,-1.30
2019-01-21T18:43:41.738Z,-1.40
2019-01-21T18:46:10.382Z,-1.40
2019-01-21T18:48:38.887Z,-1.50
2019-01-21T18:51:07.732Z,-1.50
2019-01-21T18:53:36.188Z,-1.50
2019-01-21T18:56:04.527Z,-1.50
2019-01-21T18:58:32.985Z,-1.60
2019-01-21T19:01:01.335Z,-1.60
2019-01-21T19:03:29.773Z,-1.60
2019-01-21T19:05:58.103Z,-1.70
2019-01-21T19:08:26.546Z,-1.70
2019-01-21T19:10:54.908Z,-1.80
2019-01-21T19:13:23.374Z,-1.80
2019-01-21T19:15:51.735Z,-1.80
2019-01-21T19:18:20.090Z,-1.90
2019-01-21T19:20:48.591Z,-1.80
2019-01-21T19:23:16.988Z,-1.90
2019-01-21T19:25:45.762Z,-1.90
2019-01-21T19:28:14.203Z,-1.90
2019-01-21T19:30:42.691Z,-1.90
2019-01-21T19:33:11.230Z,-1.90
2019-01-21T19:35:39.883Z,-1.90
2019-01-21T19:38:10.586Z,-1.90
2019-01-21T19:40:39.181Z,-1.90
2019-01-21T19:43:07.579Z,-2.00
2019-01-21T19:45:36.010Z,-1.90
2019-01-21T19:48:04.671Z,-2.00
2019-01-21T19:50:33.165Z,-2.00
2019-01-21T19:53:02.521Z,-2.00
2019-01-21T19:55:41.476Z,-2.00
2019-01-21T19:58:10.629Z,-2.00
2019-01-21T20:00:38.998Z,-2.10
2019-01-21T20:03:07.604Z,-2.10
2019-01-21T20:05:36.274Z,-2.10
2019-01-21T20:08:05.114Z,-2.10
2019-01-21T20:10:33.698Z,-2.10
2019-01-21T20:13:02.149Z,-2.20
2019-01-21T20:15:30.556Z,-2.20
2019-01-21T20:17:59.103Z,-2.20
2019-01-21T20:20:28.928Z,-2.20
2019-01-21T20:22:57.844Z,-2.20
2019-01-21T20:25:27.138Z,-2.20
2019-01-21T20:27:55.510Z,-2.20
2019-01-21T20:30:24.119Z,-2.20
2019-01-21T20:32:52.668Z,-2.20
2019-01-21T20:35:21.126Z,-2.20
2019-01-21T20:37:49.516Z,-2.30
2019-01-21T20:40:19.184Z,-2.30
2019-01-21T20:42:47.736Z,-2.20
2019-01-21T20:45:16.164Z,-2.30
2019-01-21T20:47:46.353Z,-2.30
2019-01-21T20:50:16.432Z,-2.30
2019-01-21T20:52:44.917Z,-2.40
2019-01-21T20:55:13.549Z,-2.40
2019-01-21T20:57:42.051Z,-2.40
2019-01-21T21:00:12.243Z,-2.40
2019-01-21T21:02:40.827Z,-2.40
2019-01-21T21:05:09.253Z,-2.40
2019-01-21T21:07:37.631Z,-2.40
2019-01-21T21:10:07.032Z,-2.40
2019-01-21T21:12:35.477Z,-2.40
2019-01-21T21:15:04.940Z,-2.40
2019-01-21T21:17:33.319Z,-2.40
2019-01-21T21:20:01.695Z,-2.40
2019-01-21T21:22:30.090Z,-2.40
2019-01-21T21:25:01.728Z,-2.40
2019-01-21T21:27:30.366Z,-2.40
2019-01-21T21:29:59.530Z,-2.40
2019-01-21T21:32:28.267Z,-2.40
2019-01-21T21:34:56.736Z,-2.30
2019-01-21T21:37:25.208Z,-2.30
2019-01-21T21:39:54.428Z,-2.30
2019-01-21T21:42:24.035Z,-2.30
2019-01-21T21:44:52.584Z,-2.30
2019-01-21T21:47:24.118Z,-2.30
2019-01-21T21:49:52.660Z,-2.20
2019-01-21T21:52:27.809Z,-2.30
2019-01-21T21:54:53.961Z,-2.20
2019-01-21T21:57:22.686Z,-2.20
2019-01-21T21:59:51.221Z,-2.20
2019-01-21T22:02:19.627Z,-2.20
2019-01-21T22:04:49.284Z,-2.20
2019-01-21T22:07:17.640Z,-2.20
2019-01-21T22:09:46.048Z,-2.20
2019-01-21T22:12:14.532Z,-2.20
2019-01-21T22:14:43.013Z,-2.20
2019-01-21T22:17:11.464Z,-2.20
2019-01-21T22:19:40.073Z,-2.20
2019-01-21T22:22:08.275Z,-2.20
2019-01-21T22:24:36.592Z,-2.20
2019-01-21T22:27:04.989Z,-2.10
2019-01-21T22:29:33.402Z,-2.10
2019-01-21T22:32:01.836Z,-2.10
2019-01-21T22:34:30.263Z,-2.10
2019-01-21T22:36:58.719Z,-2.10
2019-01-21T22:39:27.160Z,-2.10
2019-01-21T22:41:55.559Z,-2.10
2019-01-21T22:44:24.110Z,-2.10
2019-01-21T22:46:52.776Z,-2.10
2019-01-21T22:49:21.263Z,-2.10
2019-01-21T22:51:49.740Z,-2.10
2019-01-21T22:54:18.140Z,-2.10
2019-01-21T22:56:46.560Z,-2.20
2019-01-21T22:59:15.273Z,-2.20
2019-01-21T23:01:43.626Z,-2.20
2019-01-21T23:04:12.098Z,-2.20
2019-01-21T23:06:40.446Z,-2.20
2019-01-21T23:09:09.094Z,-2.20
2019-01-21T23:11:37.536Z,-2.30
2019-01-21T23:14:05.976Z,-2.30
2019-01-21T23:16:34.419Z,-2.30
2019-01-21T23:19:03.153Z,-2.30
2019-01-21T23:21:31.697Z,-2.40
2019-01-21T23:24:00.158Z,-2.40
2019-01-21T23:26:28.741Z,-2.40
2019-01-21T23:28:57.111Z,-2.40
2019-01-21T23:31:25.567Z,-2.40
2019-01-21T23:33:54.046Z,-2.40
2019-01-21T23:36:22.439Z,-2.40
2019-01-21T23:38:50.921Z,-2.50
2019-01-21T23:41:19.524Z,-2.50
2019-01-21T23:43:47.948Z,-2.50
2019-01-21T23:46:16.439Z,-2.40
2019-01-21T23:48:44.878Z,-2.40
2019-01-21T23:51:13.374Z,-2.40
2019-01-21T23:53:41.781Z,-2.40
2019-01-21T23:56:10.320Z,-2.40
2019-01-21T23:58:38.709Z,-2.40
